sensor_id;sensor_type;location;lat;lon;timestamp;pressure;altitude;pressure_sealevel;temperature;humidity
69187;BME280;56301;56.864;60.554;2023-01-08T00:00:50;97594.63;;;25.47;33.56
69187;BME280;56301;56.864;60.554;2023-01-08T00:03:13;97593.56;;;25.48;32.64
69187;BME280;56301;56.864;60.554;2023-01-08T00:05:36;97592.75;;;25.47;33.48
69187;BME280;56301;56.864;60.554;2023-01-08T00:07:59;97587.56;;;25.45;32.98
69187;BME280;56301;56.864;60.554;2023-01-08T00:10:21;97585.88;;;25.44;33.67
69187;BME280;56301;56.864;60.554;2023-01-08T00:12:43;97585.03;;;25.44;33.19
69187;BME280;56301;56.864;60.554;2023-01-08T00:15:06;97587.75;;;25.44;33.52
69187;BME280;56301;56.864;60.554;2023-01-08T00:17:29;97585.03;;;25.44;33.07
69187;BME280;56301;56.864;60.554;2023-01-08T00:19:51;97595.88;;;25.44;33.90
69187;BME280;56301;56.864;60.554;2023-01-08T00:22:13;97590.47;;;25.44;33.51
69187;BME280;56301;56.864;60.554;2023-01-08T00:24:36;97584.22;;;25.43;33.67
69187;BME280;56301;56.864;60.554;2023-01-08T00:26:59;97584.44;;;25.42;33.67
69187;BME280;56301;56.864;60.554;2023-01-08T00:29:21;97590.47;;;25.44;33.22
69187;BME280;56301;56.864;60.554;2023-01-08T00:31:44;97598.00;;;25.42;33.49
69187;BME280;56301;56.864;60.554;2023-01-08T00:34:06;97605.06;;;25.43;32.65
69187;BME280;56301;56.864;60.554;2023-01-08T00:36:29;97600.47;;;25.43;33.63
69187;BME280;56301;56.864;60.554;2023-01-08T00:38:52;97609.66;;;25.42;33.37
69187;BME280;56301;56.864;60.554;2023-01-08T00:41:15;97600.25;;;25.45;32.80
69187;BME280;56301;56.864;60.554;2023-01-08T00:43:37;97610.47;;;25.43;33.10
69187;BME280;56301;56.864;60.554;2023-01-08T00:46:00;97605.88;;;25.43;33.73
69187;BME280;56301;56.864;60.554;2023-01-08T00:48:22;97598.00;;;25.42;33.87
69187;BME280;56301;56.864;60.554;2023-01-08T00:50:45;97606.94;;;25.42;33.66
69187;BME280;56301;56.864;60.554;2023-01-08T00:53:07;97596.94;;;25.43;33.32
69187;BME280;56301;56.864;60.554;2023-01-08T00:55:30;97613.19;;;25.43;33.49
69187;BME280;56301;56.864;60.554;2023-01-08T00:57:52;97601.28;;;25.44;33.38
69187;BME280;56301;56.864;60.554;2023-01-08T01:00:15;97601.69;;;25.48;34.31
69187;BME280;56301;56.864;60.554;2023-01-08T01:02:38;97590.03;;;25.47;34.24
69187;BME280;56301;56.864;60.554;2023-01-08T01:05:00;97594.63;;;25.47;33.86
69187;BME280;56301;56.864;60.554;2023-01-08T01:07:23;97585.03;;;25.44;34.33
69187;BME280;56301;56.864;60.554;2023-01-08T01:09:45;97591.53;;;25.43;34.06
69187;BME280;56301;56.864;60.554;2023-01-08T01:12:07;97598.00;;;25.42;33.30
69187;BME280;56301;56.864;60.554;2023-01-08T01:14:30;97607.13;;;25.41;33.45
69187;BME280;56301;56.864;60.554;2023-01-08T01:16:52;97603.84;;;25.39;33.54
69187;BME280;56301;56.864;60.554;2023-01-08T01:19:15;97608.63;;;25.37;33.30
69187;BME280;56301;56.864;60.554;2023-01-08T01:21:38;97613.22;;;25.36;32.99
69187;BME280;56301;56.864;60.554;2023-01-08T01:24:01;97610.72;;;25.35;32.39
69187;BME280;56301;56.864;60.554;2023-01-08T01:26:24;97616.16;;;25.35;32.24
69187;BME280;56301;56.864;60.554;2023-01-08T01:28:47;97628.81;;;25.34;32.21
69187;BME280;56301;56.864;60.554;2023-01-08T01:31:10;97626.13;;;25.34;31.85
69187;BME280;56301;56.864;60.554;2023-01-08T01:33:33;97624.28;;;25.35;32.63
69187;BME280;56301;56.864;60.554;2023-01-08T01:36:00;97618.84;;;25.35;32.17
69187;BME280;56301;56.864;60.554;2023-01-08T01:38:23;97629.19;;;25.51;32.07
69187;BME280;56301;56.864;60.554;2023-01-08T01:40:46;97617.38;;;25.70;32.87
69187;BME280;56301;56.864;60.554;2023-01-08T01:43:12;97613.78;;;25.90;32.92
69187;BME280;56301;56.864;60.554;2023-01-08T01:45:34;97615.94;;;26.06;32.66
69187;BME280;56301;56.864;60.554;2023-01-08T01:47:58;97616.44;;;26.22;32.52
69187;BME280;56301;56.864;60.554;2023-01-08T01:55:28;97626.47;;;26.46;31.87
69187;BME280;56301;56.864;60.554;2023-01-08T01:57:52;97631.03;;;26.46;31.54
69187;BME280;56301;56.864;60.554;2023-01-08T02:00:16;97625.22;;;26.42;31.61
69187;BME280;56301;56.864;60.554;2023-01-08T02:02:39;97625.09;;;26.37;31.69
69187;BME280;56301;56.864;60.554;2023-01-08T02:05:01;97632.22;;;26.31;32.02
69187;BME280;56301;56.864;60.554;2023-01-08T02:07:30;97621.41;;;26.25;31.89
69187;BME280;56301;56.864;60.554;2023-01-08T02:09:59;97621.25;;;26.20;32.54
69187;BME280;56301;56.864;60.554;2023-01-08T02:12:30;97623.81;;;26.14;32.48
69187;BME280;56301;56.864;60.554;2023-01-08T02:15:04;97626.34;;;26.09;31.58
69187;BME280;56301;56.864;60.554;2023-01-08T02:17:43;97614.28;;;26.05;31.55
69187;BME280;56301;56.864;60.554;2023-01-08T02:20:20;97642.88;;;26.01;32.13
69187;BME280;56301;56.864;60.554;2023-01-08T02:25:30;97635.59;;;25.95;30.31
69187;BME280;56301;56.864;60.554;2023-01-08T02:27:57;97644.16;;;25.92;31.42
69187;BME280;56301;56.864;60.554;2023-01-08T02:30:21;97654.41;;;25.90;31.16
69187;BME280;56301;56.864;60.554;2023-01-08T02:32:44;97654.84;;;25.87;30.48
69187;BME280;56301;56.864;60.554;2023-01-08T02:35:07;97645.28;;;25.84;30.34
69187;BME280;56301;56.864;60.554;2023-01-08T02:37:30;97666.13;;;25.84;29.72
69187;BME280;56301;56.864;60.554;2023-01-08T02:40:09;97664.47;;;25.83;29.69
69187;BME280;56301;56.864;60.554;2023-01-08T02:47:38;97678.28;;;25.68;30.87
69187;BME280;56301;56.864;60.554;2023-01-08T02:50:10;97680.78;;;25.63;30.79
69187;BME280;56301;56.864;60.554;2023-01-08T02:52:35;97672.25;;;25.59;30.99
69187;BME280;56301;56.864;60.554;2023-01-08T02:54:59;97679.97;;;25.56;31.09
69187;BME280;56301;56.864;60.554;2023-01-08T02:57:24;97680.22;;;25.54;31.72
69187;BME280;56301;56.864;60.554;2023-01-08T02:59:47;97687.09;;;25.50;31.40
69187;BME280;56301;56.864;60.554;2023-01-08T03:02:11;97701.69;;;25.49;31.79
69187;BME280;56301;56.864;60.554;2023-01-08T03:04:35;97695.66;;;25.47;32.40
69187;BME280;56301;56.864;60.554;2023-01-08T03:06:59;97694.81;;;25.47;31.91
69187;BME280;56301;56.864;60.554;2023-01-08T03:09:21;97696.72;;;25.46;32.40
69187;BME280;56301;56.864;60.554;2023-01-08T03:11:56;97701.31;;;25.45;32.44
69187;BME280;56301;56.864;60.554;2023-01-08T03:14:40;97703.16;;;25.45;32.44
69187;BME280;56301;56.864;60.554;2023-01-08T03:17:12;97699.84;;;25.43;32.32
69187;BME280;56301;56.864;60.554;2023-01-08T03:19:40;97696.50;;;25.41;32.27
69187;BME280;56301;56.864;60.554;2023-01-08T03:22:05;97704.03;;;25.39;32.57
69187;BME280;56301;56.864;60.554;2023-01-08T03:24:30;97701.75;;;25.36;32.60
69187;BME280;56301;56.864;60.554;2023-01-08T03:26:56;97696.31;;;25.36;31.99
69187;BME280;56301;56.864;60.554;2023-01-08T03:29:19;97701.75;;;25.36;32.21
69187;BME280;56301;56.864;60.554;2023-01-08T03:31:43;97707.16;;;25.36;32.58
69187;BME280;56301;56.864;60.554;2023-01-08T03:34:07;97702.78;;;25.35;32.80
69187;BME280;56301;56.864;60.554;2023-01-08T03:36:30;97705.50;;;25.35;32.18
69187;BME280;56301;56.864;60.554;2023-01-08T03:39:03;97697.38;;;25.35;31.69
69187;BME280;56301;56.864;60.554;2023-01-08T03:41:29;97698.41;;;25.34;32.23
69187;BME280;56301;56.864;60.554;2023-01-08T03:43:53;97696.75;;;25.33;32.66
69187;BME280;56301;56.864;60.554;2023-01-08T03:46:18;97721.34;;;25.31;32.39
69187;BME280;56301;56.864;60.554;2023-01-08T03:48:41;97717.16;;;25.29;32.88
69187;BME280;56301;56.864;60.554;2023-01-08T03:51:07;97711.75;;;25.29;32.89
69187;BME280;56301;56.864;60.554;2023-01-08T03:53:29;97710.94;;;25.28;32.63
69187;BME280;56301;56.864;60.554;2023-01-08T03:55:52;97722.59;;;25.29;32.85
69187;BME280;56301;56.864;60.554;2023-01-08T03:58:14;97731.75;;;25.28;32.67
69187;BME280;56301;56.864;60.554;2023-01-08T04:00:37;97730.91;;;25.27;33.22
69187;BME280;56301;56.864;60.554;2023-01-08T04:02:59;97736.53;;;25.26;32.89
69187;BME280;56301;56.864;60.554;2023-01-08T04:05:22;97732.78;;;25.27;32.50
69187;BME280;56301;56.864;60.554;2023-01-08T04:07:44;97724.66;;;25.27;32.99
69187;BME280;56301;56.864;60.554;2023-01-08T04:10:07;97732.19;;;25.25;32.66
69187;BME280;56301;56.864;60.554;2023-01-08T04:12:30;97737.38;;;25.26;32.39
69187;BME280;56301;56.864;60.554;2023-01-08T04:14:52;97726.78;;;25.25;32.90
69187;BME280;56301;56.864;60.554;2023-01-08T04:17:15;97742.38;;;25.23;32.94
69187;BME280;56301;56.864;60.554;2023-01-08T04:19:37;97735.09;;;25.23;32.49
69187;BME280;56301;56.864;60.554;2023-01-08T04:22:00;97746.13;;;25.21;32.56
69187;BME280;56301;56.864;60.554;2023-01-08T04:24:22;97747.19;;;25.20;33.49
69187;BME280;56301;56.864;60.554;2023-01-08T04:26:45;97747.19;;;25.20;33.33
69187;BME280;56301;56.864;60.554;2023-01-08T04:29:09;97748.84;;;25.21;32.77
69187;BME280;56301;56.864;60.554;2023-01-08T04:31:32;97745.50;;;25.19;32.92
69187;BME280;56301;56.864;60.554;2023-01-08T04:33:54;97754.69;;;25.18;32.73
69187;BME280;56301;56.864;60.554;2023-01-08T04:36:17;97755.72;;;25.17;32.71
69187;BME280;56301;56.864;60.554;2023-01-08T04:38:39;97759.50;;;25.16;32.71
69187;BME280;56301;56.864;60.554;2023-01-08T04:41:02;97755.09;;;25.15;32.79
69187;BME280;56301;56.864;60.554;2023-01-08T04:43:24;97754.06;;;25.16;32.58
69187;BME280;56301;56.864;60.554;2023-01-08T04:45:47;97750.50;;;25.16;32.63
69187;BME280;56301;56.864;60.554;2023-01-08T04:48:09;97751.38;;;25.16;33.07
69187;BME280;56301;56.864;60.554;2023-01-08T04:50:32;97756.78;;;25.16;32.17
69187;BME280;56301;56.864;60.554;2023-01-08T04:52:54;97757.78;;;25.29;32.72
69187;BME280;56301;56.864;60.554;2023-01-08T04:55:16;97755.22;;;25.47;33.13
69187;BME280;56301;56.864;60.554;2023-01-08T04:57:39;97749.97;;;25.65;32.83
69187;BME280;56301;56.864;60.554;2023-01-08T05:00:02;97751.38;;;25.81;32.75
69187;BME280;56301;56.864;60.554;2023-01-08T05:02:25;97758.19;;;25.97;32.05
69187;BME280;56301;56.864;60.554;2023-01-08T05:04:48;97760.66;;;26.05;31.59
69187;BME280;56301;56.864;60.554;2023-01-08T05:07:10;97757.69;;;26.13;32.24
69187;BME280;56301;56.864;60.554;2023-01-08T05:09:33;97773.09;;;26.20;31.61
69187;BME280;56301;56.864;60.554;2023-01-08T05:11:55;97784.09;;;26.25;31.51
69187;BME280;56301;56.864;60.554;2023-01-08T05:14:18;97774.94;;;26.26;31.21
69187;BME280;56301;56.864;60.554;2023-01-08T05:16:41;97784.72;;;26.27;32.31
69187;BME280;56301;56.864;60.554;2023-01-08T05:19:03;97781.63;;;26.23;31.82
69187;BME280;56301;56.864;60.554;2023-01-08T05:21:26;97777.50;;;26.14;32.95
69187;BME280;56301;56.864;60.554;2023-01-08T05:23:49;97773.56;;;26.10;32.45
69187;BME280;56301;56.864;60.554;2023-01-08T05:26:11;97776.09;;;26.05;32.38
69187;BME280;56301;56.864;60.554;2023-01-08T05:28:33;97780.47;;;25.99;32.25
69187;BME280;56301;56.864;60.554;2023-01-08T05:30:56;97782.78;;;25.96;33.07
69187;BME280;56301;56.864;60.554;2023-01-08T05:33:19;97779.69;;;25.92;32.94
69187;BME280;56301;56.864;60.554;2023-01-08T05:35:42;97772.84;;;25.89;31.85
69187;BME280;56301;56.864;60.554;2023-01-08T05:38:05;97767.19;;;25.91;31.45
69187;BME280;56301;56.864;60.554;2023-01-08T05:40:27;97779.09;;;25.90;30.92
69187;BME280;56301;56.864;60.554;2023-01-08T05:42:50;97782.00;;;25.88;32.16
69187;BME280;56301;56.864;60.554;2023-01-08T05:45:12;97788.25;;;25.89;31.28
69187;BME280;56301;56.864;60.554;2023-01-08T05:47:35;97782.81;;;25.89;31.00
69187;BME280;56301;56.864;60.554;2023-01-08T05:49:57;97789.53;;;25.86;30.87
69187;BME280;56301;56.864;60.554;2023-01-08T05:52:19;97781.59;;;25.85;30.82
69187;BME280;56301;56.864;60.554;2023-01-08T05:54:42;97791.59;;;25.84;30.24
69187;BME280;56301;56.864;60.554;2023-01-08T05:57:04;97787.00;;;25.85;29.72
69187;BME280;56301;56.864;60.554;2023-01-08T05:59:27;97776.81;;;25.80;31.16
69187;BME280;56301;56.864;60.554;2023-01-08T06:01:49;97785.75;;;25.74;31.06
69187;BME280;56301;56.864;60.554;2023-01-08T06:04:12;97775.56;;;25.69;31.22
69187;BME280;56301;56.864;60.554;2023-01-08T06:06:34;97785.81;;;25.67;30.17
69187;BME280;56301;56.864;60.554;2023-01-08T06:08:58;97785.59;;;25.62;31.13
69187;BME280;56301;56.864;60.554;2023-01-08T06:11:21;97780.00;;;25.57;31.20
69187;BME280;56301;56.864;60.554;2023-01-08T06:13:43;97782.31;;;25.54;31.10
69187;BME280;56301;56.864;60.554;2023-01-08T06:16:07;97792.94;;;25.49;30.87
69187;BME280;56301;56.864;60.554;2023-01-08T06:18:29;97780.44;;;25.48;31.15
69187;BME280;56301;56.864;60.554;2023-01-08T06:20:52;97796.91;;;25.46;31.75
69187;BME280;56301;56.864;60.554;2023-01-08T06:23:15;97794.19;;;25.46;31.57
69187;BME280;56301;56.864;60.554;2023-01-08T06:25:37;97787.50;;;25.49;32.00
69187;BME280;56301;56.864;60.554;2023-01-08T06:28:00;97799.19;;;25.49;31.63
69187;BME280;56301;56.864;60.554;2023-01-08T06:30:22;97793.78;;;25.49;32.53
69187;BME280;56301;56.864;60.554;2023-01-08T06:32:45;97799.19;;;25.49;32.29
69187;BME280;56301;56.864;60.554;2023-01-08T06:35:07;97796.69;;;25.48;32.53
69187;BME280;56301;56.864;60.554;2023-01-08T06:37:30;97792.94;;;25.49;32.52
69187;BME280;56301;56.864;60.554;2023-01-08T06:39:52;97800.44;;;25.47;31.81
69187;BME280;56301;56.864;60.554;2023-01-08T06:42:15;97790.44;;;25.47;32.31
69187;BME280;56301;56.864;60.554;2023-01-08T06:44:37;97810.47;;;25.46;31.66
69187;BME280;56301;56.864;60.554;2023-01-08T06:47:00;97811.47;;;25.45;32.00
69187;BME280;56301;56.864;60.554;2023-01-08T06:49:22;97821.28;;;25.46;31.81
69187;BME280;56301;56.864;60.554;2023-01-08T06:51:45;97810.47;;;25.46;31.99
69187;BME280;56301;56.864;60.554;2023-01-08T06:54:08;97814.19;;;25.45;31.97
69187;BME280;56301;56.864;60.554;2023-01-08T06:56:30;97804.41;;;25.44;32.46
69187;BME280;56301;56.864;60.554;2023-01-08T06:58:53;97811.47;;;25.45;32.64
69187;BME280;56301;56.864;60.554;2023-01-08T07:01:16;97806.69;;;25.47;31.60
69187;BME280;56301;56.864;60.554;2023-01-08T07:03:38;97806.06;;;25.45;32.51
69187;BME280;56301;56.864;60.554;2023-01-08T07:06:01;97801.69;;;25.44;31.68
69187;BME280;56301;56.864;60.554;2023-01-08T07:08:24;97807.13;;;25.44;32.53
69187;BME280;56301;56.864;60.554;2023-01-08T07:10:47;97816.91;;;25.45;32.60
69187;BME280;56301;56.864;60.554;2023-01-08T07:13:10;97815.88;;;25.46;32.26
69187;BME280;56301;56.864;60.554;2023-01-08T07:15:32;97815.03;;;25.45;32.13
69187;BME280;56301;56.864;60.554;2023-01-08T07:17:55;97812.09;;;25.47;31.88
69187;BME280;56301;56.864;60.554;2023-01-08T07:20:17;97813.34;;;25.51;32.27
69187;BME280;56301;56.864;60.554;2023-01-08T07:22:40;97817.94;;;25.44;32.61
69187;BME280;56301;56.864;60.554;2023-01-08T07:25:02;97818.38;;;25.34;31.99
69187;BME280;56301;56.864;60.554;2023-01-08T07:27:25;97807.56;;;25.14;31.83
69187;BME280;56301;56.864;60.554;2023-01-08T07:29:47;97801.94;;;25.16;31.79
69187;BME280;56301;56.864;60.554;2023-01-08T07:32:10;97795.09;;;25.13;31.96
69187;BME280;56301;56.864;60.554;2023-01-08T07:34:32;97805.09;;;25.13;31.44
69187;BME280;56301;56.864;60.554;2023-01-08T07:36:55;97808.81;;;25.18;31.68
69187;BME280;56301;56.864;60.554;2023-01-08T07:39:17;97798.81;;;25.19;32.09
69187;BME280;56301;56.864;60.554;2023-01-08T07:41:39;97797.56;;;25.28;32.41
69187;BME280;56301;56.864;60.554;2023-01-08T07:44:02;97801.28;;;25.34;33.33
69187;BME280;56301;56.864;60.554;2023-01-08T07:46:24;97810.88;;;25.36;31.25
69187;BME280;56301;56.864;60.554;2023-01-08T07:48:47;97807.75;;;25.46;32.00
69187;BME280;56301;56.864;60.554;2023-01-08T07:51:10;97806.63;;;25.67;31.56
69187;BME280;56301;56.864;60.554;2023-01-08T07:53:33;97808.66;;;25.91;30.81
69187;BME280;56301;56.864;60.554;2023-01-08T07:55:59;97803.38;;;26.10;31.23
69187;BME280;56301;56.864;60.554;2023-01-08T07:58:22;97801.44;;;26.24;31.45
69187;BME280;56301;56.864;60.554;2023-01-08T08:00:44;97804.28;;;26.35;31.82
69187;BME280;56301;56.864;60.554;2023-01-08T08:03:07;97800.06;;;26.46;30.91
69187;BME280;56301;56.864;60.554;2023-01-08T08:05:30;97804.22;;;26.55;31.41
69187;BME280;56301;56.864;60.554;2023-01-08T08:07:53;97805.19;;;26.61;31.78
69187;BME280;56301;56.864;60.554;2023-01-08T08:10:15;97805.38;;;26.66;30.98
69187;BME280;56301;56.864;60.554;2023-01-08T08:12:38;97808.09;;;26.66;31.51
69187;BME280;56301;56.864;60.554;2023-01-08T08:15:00;97806.03;;;26.61;31.21
69187;BME280;56301;56.864;60.554;2023-01-08T08:17:23;97806.53;;;26.52;30.85
69187;BME280;56301;56.864;60.554;2023-01-08T08:19:45;97806.13;;;26.48;30.81
69187;BME280;56301;56.864;60.554;2023-01-08T08:22:08;97806.75;;;26.44;30.42
69187;BME280;56301;56.864;60.554;2023-01-08T08:24:30;97803.44;;;26.35;30.77
69187;BME280;56301;56.864;60.554;2023-01-08T08:26:52;97813.06;;;26.31;31.97
69187;BME280;56301;56.864;60.554;2023-01-08T08:29:15;97806.44;;;26.27;31.98
69187;BME280;56301;56.864;60.554;2023-01-08T08:31:37;97815.84;;;26.17;32.32
69187;BME280;56301;56.864;60.554;2023-01-08T08:34:00;97808.63;;;26.05;31.55
69187;BME280;56301;56.864;60.554;2023-01-08T08:36:26;97822.38;;;26.03;32.02
69187;BME280;56301;56.864;60.554;2023-01-08T08:38:49;97820.31;;;25.99;31.76
69187;BME280;56301;56.864;60.554;2023-01-08T08:41:11;97759.47;;;25.95;31.82
69187;BME280;56301;56.864;60.554;2023-01-08T08:43:34;97819.34;;;25.86;31.95
69187;BME280;56301;56.864;60.554;2023-01-08T08:45:56;97821.00;;;25.81;31.85
69187;BME280;56301;56.864;60.554;2023-01-08T08:48:19;97814.75;;;25.80;31.91
69187;BME280;56301;56.864;60.554;2023-01-08T08:50:41;97815.38;;;25.76;31.82
69187;BME280;56301;56.864;60.554;2023-01-08T08:53:04;97825.41;;;25.68;32.15
69187;BME280;56301;56.864;60.554;2023-01-08T08:55:27;97813.75;;;25.61;31.91
69187;BME280;56301;56.864;60.554;2023-01-08T08:57:49;97825.84;;;25.52;32.52
69187;BME280;56301;56.864;60.554;2023-01-08T09:00:12;97824.59;;;25.41;32.70
69187;BME280;56301;56.864;60.554;2023-01-08T09:02:35;97825.88;;;25.45;33.29
69187;BME280;56301;56.864;60.554;2023-01-08T09:04:57;97826.47;;;25.54;32.70
69187;BME280;56301;56.864;60.554;2023-01-08T09:07:20;97813.75;;;25.55;32.03
69187;BME280;56301;56.864;60.554;2023-01-08T09:09:42;97814.59;;;25.55;31.70
69187;BME280;56301;56.864;60.554;2023-01-08T09:12:05;97815.00;;;25.52;32.44
69187;BME280;56301;56.864;60.554;2023-01-08T09:14:27;97825.22;;;25.50;31.98
69187;BME280;56301;56.864;60.554;2023-01-08T09:16:50;97829.59;;;25.51;31.88
69187;BME280;56301;56.864;60.554;2023-01-08T09:19:12;97829.19;;;25.48;32.05
69187;BME280;56301;56.864;60.554;2023-01-08T09:21:35;97837.53;;;25.46;33.12
69187;BME280;56301;56.864;60.554;2023-01-08T09:23:57;97834.19;;;25.44;31.72
69187;BME280;56301;56.864;60.554;2023-01-08T09:26:19;97839.19;;;25.40;32.31
69187;BME280;56301;56.864;60.554;2023-01-08T09:28:42;97838.19;;;25.35;31.92
69187;BME280;56301;56.864;60.554;2023-01-08T09:31:04;97832.13;;;25.33;32.32
69187;BME280;56301;56.864;60.554;2023-01-08T09:33:27;97837.13;;;25.29;31.99
69187;BME280;56301;56.864;60.554;2023-01-08T09:35:49;97733.44;;;25.15;33.18
69187;BME280;56301;56.864;60.554;2023-01-08T09:38:12;97735.53;;;25.13;32.60
69187;BME280;56301;56.864;60.554;2023-01-08T09:40:37;97752.59;;;25.07;31.43
69187;BME280;56301;56.864;60.554;2023-01-08T09:43:02;97837.72;;;25.05;31.40
69187;BME280;56301;56.864;60.554;2023-01-08T09:45:26;97839.84;;;25.09;32.48
69187;BME280;56301;56.864;60.554;2023-01-08T09:47:49;97841.53;;;25.10;32.49
69187;BME280;56301;56.864;60.554;2023-01-08T09:50:11;97842.13;;;25.19;32.75
69187;BME280;56301;56.864;60.554;2023-01-08T09:52:35;97836.53;;;25.20;32.32
69187;BME280;56301;56.864;60.554;2023-01-08T09:55:01;97840.06;;;25.14;31.90
69187;BME280;56301;56.864;60.554;2023-01-08T09:57:23;97837.13;;;25.09;31.90
69187;BME280;56301;56.864;60.554;2023-01-08T09:59:46;97841.25;;;25.05;32.86
69187;BME280;56301;56.864;60.554;2023-01-08T10:02:11;97840.84;;;25.08;32.36
69187;BME280;56301;56.864;60.554;2023-01-08T10:04:34;97839.66;;;25.11;32.26
69187;BME280;56301;56.864;60.554;2023-01-08T10:06:59;97844.22;;;25.10;32.65
69187;BME280;56301;56.864;60.554;2023-01-08T10:09:27;97840.66;;;25.10;32.51
69187;BME280;56301;56.864;60.554;2023-01-08T10:11:50;97746.53;;;25.05;32.25
69187;BME280;56301;56.864;60.554;2023-01-08T10:14:18;97756.94;;;25.02;31.63
69187;BME280;56301;56.864;60.554;2023-01-08T10:16:42;97838.59;;;24.98;30.97
69187;BME280;56301;56.864;60.554;2023-01-08T10:19:06;97847.94;;;24.96;30.85
69187;BME280;56301;56.864;60.554;2023-01-08T10:21:37;97832.94;;;25.00;31.97
69187;BME280;56301;56.864;60.554;2023-01-08T10:24:00;97842.31;;;25.04;32.48
69187;BME280;56301;56.864;60.554;2023-01-08T10:26:24;97850.00;;;25.01;32.57
69187;BME280;56301;56.864;60.554;2023-01-08T10:28:46;97854.59;;;25.00;32.17
69187;BME280;56301;56.864;60.554;2023-01-08T10:31:10;97858.38;;;25.26;33.35
69187;BME280;56301;56.864;60.554;2023-01-08T10:36:02;97858.50;;;25.70;33.83
69187;BME280;56301;56.864;60.554;2023-01-08T10:38:29;97864.97;;;25.89;33.72
69187;BME280;56301;56.864;60.554;2023-01-08T10:40:52;97849.28;;;26.05;33.64
69187;BME280;56301;56.864;60.554;2023-01-08T10:43:20;97860.50;;;26.15;33.23
69187;BME280;56301;56.864;60.554;2023-01-08T10:45:43;97861.50;;;26.21;33.83
69187;BME280;56301;56.864;60.554;2023-01-08T10:48:16;97849.19;;;26.25;34.80
69187;BME280;56301;56.864;60.554;2023-01-08T10:50:39;97853.13;;;26.29;34.64
69187;BME280;56301;56.864;60.554;2023-01-08T10:53:05;97851.47;;;26.28;32.96
69187;BME280;56301;56.864;60.554;2023-01-08T10:55:43;97782.47;;;26.17;34.17
69187;BME280;56301;56.864;60.554;2023-01-08T11:00:32;97862.44;;;26.01;33.55
69187;BME280;56301;56.864;60.554;2023-01-08T11:02:56;97854.75;;;25.85;33.35
69187;BME280;56301;56.864;60.554;2023-01-08T11:05:27;97860.38;;;25.77;33.83
69187;BME280;56301;56.864;60.554;2023-01-08T11:07:51;97858.50;;;25.70;33.06
69187;BME280;56301;56.864;60.554;2023-01-08T11:10:23;97864.59;;;25.59;32.78
69187;BME280;56301;56.864;60.554;2023-01-08T11:12:46;97867.94;;;25.55;33.23
69187;BME280;56301;56.864;60.554;2023-01-08T11:17:36;97874.63;;;25.45;32.97
69187;BME280;56301;56.864;60.554;2023-01-08T11:20:06;97878.78;;;25.41;33.38
69187;BME280;56301;56.864;60.554;2023-01-08T11:22:29;97880.47;;;25.36;33.30
69187;BME280;56301;56.864;60.554;2023-01-08T11:24:52;97876.91;;;25.29;33.41
69187;BME280;56301;56.864;60.554;2023-01-08T11:27:15;97890.84;;;25.19;33.85
69187;BME280;56301;56.864;60.554;2023-01-08T11:37:13;97889.19;;;25.18;33.47
69187;BME280;56301;56.864;60.554;2023-01-08T11:39:35;97891.50;;;25.21;34.38
69187;BME280;56301;56.864;60.554;2023-01-08T11:42:42;97899.19;;;25.31;34.39
69187;BME280;56301;56.864;60.554;2023-01-08T11:49:42;97902.34;;;25.28;33.63
69187;BME280;56301;56.864;60.554;2023-01-08T11:52:27;97892.75;;;25.32;33.45
69187;BME280;56301;56.864;60.554;2023-01-08T11:55:03;97902.94;;;25.36;34.04
69187;BME280;56301;56.864;60.554;2023-01-08T11:59:54;97800.91;;;25.17;32.87
69187;BME280;56301;56.864;60.554;2023-01-08T12:04:47;97818.81;;;25.11;32.30
69187;BME280;56301;56.864;60.554;2023-01-08T12:09:44;97915.44;;;25.11;32.16
69187;BME280;56301;56.864;60.554;2023-01-08T12:32:20;97927.97;;;25.38;33.89
69187;BME280;56301;56.864;60.554;2023-01-08T12:37:14;97928.78;;;25.39;34.44
69187;BME280;56301;56.864;60.554;2023-01-08T12:40:22;97928.13;;;25.30;34.40
69187;BME280;56301;56.864;60.554;2023-01-08T12:42:25;97833.81;;;25.20;34.86
69187;BME280;56301;56.864;60.554;2023-01-08T12:44:50;97838.81;;;25.10;34.71
69187;BME280;56301;56.864;60.554;2023-01-08T12:47:15;97932.03;;;25.01;33.66
69187;BME280;56301;56.864;60.554;2023-01-08T12:49:45;97940.22;;;25.14;35.25
69187;BME280;56301;56.864;60.554;2023-01-08T12:52:14;97944.59;;;25.29;33.61
69187;BME280;56301;56.864;60.554;2023-01-08T12:54:51;97935.66;;;25.35;33.37
69187;BME280;56301;56.864;60.554;2023-01-08T12:57:18;97947.94;;;25.37;33.97
69187;BME280;56301;56.864;60.554;2023-01-08T13:04:39;97962.53;;;25.43;34.84
69187;BME280;56301;56.864;60.554;2023-01-08T13:07:02;97960.44;;;25.45;34.27
69187;BME280;56301;56.864;60.554;2023-01-08T13:09:25;97960.44;;;25.45;34.44
69187;BME280;56301;56.864;60.554;2023-01-08T13:11:51;97964.84;;;25.46;35.05
69187;BME280;56301;56.864;60.554;2023-01-08T13:14:15;97960.66;;;25.43;34.66
69187;BME280;56301;56.864;60.554;2023-01-08T13:16:38;97966.69;;;25.39;34.53
69187;BME280;56301;56.864;60.554;2023-01-08T13:19:01;97967.94;;;25.43;34.96
69187;BME280;56301;56.864;60.554;2023-01-08T13:21:28;97968.78;;;25.43;33.95
69187;BME280;56301;56.864;60.554;2023-01-08T13:23:57;97979.00;;;25.55;33.90
69187;BME280;56301;56.864;60.554;2023-01-08T13:26:26;97973.78;;;25.73;35.04
69187;BME280;56301;56.864;60.554;2023-01-08T13:28:49;97977.94;;;25.89;34.77
69187;BME280;56301;56.864;60.554;2023-01-08T13:33:43;97984.59;;;26.20;34.30
69187;BME280;56301;56.864;60.554;2023-01-08T13:36:16;97979.97;;;26.27;33.54
69187;BME280;56301;56.864;60.554;2023-01-08T13:38:39;97990.00;;;26.33;33.74
69187;BME280;56301;56.864;60.554;2023-01-08T13:41:01;97982.03;;;26.38;34.04
69187;BME280;56301;56.864;60.554;2023-01-08T13:43:30;97990.56;;;26.41;34.75